Time;durP1;ratioP1;P1;durP2;ratioP2;P2;SDS_P1;SDS_P2;PMS_P1;PMS_P2;Temp;Humidity;BMP_temperature;BMP_pressure;BME280_temperature;BME280_humidity;BME280_pressure;Samples;Min_cycle;Max_cycle;Signal;HPM_P1;HPM_P2
2022/08/28 00:00:18;;;;;;;9.88;3.72;;;;;;;15.27;70.97;101811.56;5064273;28;20388;-66
2022/08/28 00:02:45;;;;;;;9.20;3.60;;;;;;;15.25;71.42;101808.09;5062843;28;20048;-64
2022/08/28 00:05:12;;;;;;;10.00;3.58;;;;;;;15.20;71.56;101804.81;5065546;28;20064;-65
2022/08/28 00:07:38;;;;;;;9.40;3.90;;;;;;;15.15;71.77;101816.13;5065160;28;20036;-65
2022/08/28 00:10:06;;;;;;;8.23;4.10;;;;;;;15.13;71.88;101818.13;5064658;28;20132;-65
2022/08/28 00:12:31;;;;;;;11.80;4.15;;;;;;;15.11;71.88;101822.84;5064789;28;20510;-66
2022/08/28 00:14:56;;;;;;;9.52;4.50;;;;;;;15.08;72.10;101820.34;5064919;28;20099;-64
2022/08/28 00:17:22;;;;;;;9.90;3.90;;;;;;;15.05;71.97;101826.91;5063560;28;20032;-66
2022/08/28 00:19:47;;;;;;;11.70;4.25;;;;;;;15.06;72.08;101819.56;5066026;28;20068;-65
2022/08/28 00:22:13;;;;;;;16.60;3.95;;;;;;;15.04;72.04;101819.69;5063405;28;20040;-64
2022/08/28 00:24:38;;;;;;;8.52;4.57;;;;;;;14.98;72.50;101819.28;5064986;28;20029;-64
2022/08/28 00:29:48;;;;;;;14.25;3.97;;;;;;;14.91;73.12;101818.84;5075156;28;20471;-66
2022/08/28 00:32:13;;;;;;;13.15;4.70;;;;;;;14.88;72.70;101816.38;5070323;28;20054;-65
2022/08/28 00:34:39;;;;;;;15.45;4.95;;;;;;;14.88;72.84;101820.97;5075235;28;20034;-64
2022/08/28 00:37:04;;;;;;;12.30;3.97;;;;;;;14.87;72.70;101820.06;5073375;28;20036;-65
2022/08/28 00:39:31;;;;;;;9.88;4.10;;;;;;;14.86;72.69;101823.81;5066074;28;20035;-65
2022/08/28 00:41:56;;;;;;;8.88;3.53;;;;;;;14.86;73.20;101826.53;5063766;28;20082;-65
2022/08/28 00:44:25;;;;;;;9.65;3.75;;;;;;;14.88;72.81;101830.06;5065005;28;20032;-65
2022/08/28 00:46:52;;;;;;;9.55;3.88;;;;;;;14.82;73.20;101833.25;5060103;28;20033;-66
2022/08/28 00:49:22;;;;;;;8.00;3.72;;;;;;;14.81;73.20;101831.50;5065150;28;20480;-64
2022/08/28 00:54:35;;;;;;;7.57;3.55;;;;;;;14.79;72.81;101826.16;5068307;28;20102;-64
2022/08/28 00:57:09;;;;;;;13.15;4.10;;;;;;;14.77;72.95;101824.50;5067618;28;20775;-65
2022/08/28 00:59:35;;;;;;;10.63;3.90;;;;;;;14.74;73.11;101827.47;5066721;28;20071;-65
2022/08/28 01:02:01;;;;;;;7.85;3.63;;;;;;;14.71;72.83;101825.84;5067022;28;20095;-65
2022/08/28 01:04:31;;;;;;;7.22;3.60;;;;;;;14.73;73.05;101833.91;5067601;28;20485;-65
2022/08/28 01:06:58;;;;;;;6.05;3.45;;;;;;;14.72;73.23;101830.31;5068167;28;20772;-64
2022/08/28 01:09:26;;;;;;;9.45;3.55;;;;;;;14.70;73.40;101840.53;5066989;28;20119;-64
2022/08/28 01:11:57;;;;;;;9.02;4.35;;;;;;;14.67;73.43;101845.34;5066068;28;20039;-65
2022/08/28 01:14:25;;;;;;;10.13;4.30;;;;;;;14.69;73.26;101838.78;5066565;28;20067;-64
2022/08/28 01:16:54;;;;;;;11.18;4.15;;;;;;;14.66;73.78;101836.25;5067476;28;20523;-65
2022/08/28 01:19:33;;;;;;;11.48;4.38;;;;;;;14.59;73.79;101836.81;5067521;28;20442;-65
2022/08/28 01:22:16;;;;;;;10.65;4.15;;;;;;;14.61;73.50;101843.06;5067695;28;20040;-64
2022/08/28 01:24:43;;;;;;;14.82;4.18;;;;;;;14.59;74.12;101837.69;5066799;28;20086;-65
2022/08/28 01:27:09;;;;;;;10.27;4.20;;;;;;;14.58;74.04;101840.53;5066839;28;20043;-65
2022/08/28 01:29:35;;;;;;;7.25;3.42;;;;;;;14.56;74.47;101843.41;5059502;28;20432;-64
2022/08/28 01:32:02;;;;;;;7.15;3.83;;;;;;;14.51;74.80;101838.25;5052716;28;20423;-65
2022/08/28 01:34:27;;;;;;;13.63;4.30;;;;;;;14.47;74.39;101841.31;5065991;28;20101;-65
2022/08/28 01:36:53;;;;;;;14.27;4.75;;;;;;;14.42;74.77;101840.78;5066533;28;20484;-66
2022/08/28 01:39:22;;;;;;;9.35;4.20;;;;;;;14.41;74.92;101842.63;5074279;28;20133;-66
2022/08/28 01:41:50;;;;;;;9.95;3.88;;;;;;;14.40;74.91;101842.72;5069457;28;20032;-64
2022/08/28 01:44:23;;;;;;;10.15;4.13;;;;;;;14.37;75.49;101846.56;5067010;28;20123;-66
2022/08/28 01:46:50;;;;;;;9.25;3.67;;;;;;;14.38;74.71;101848.31;5066902;28;20036;-65
2022/08/28 01:49:16;;;;;;;11.95;4.07;;;;;;;14.35;75.87;101844.91;5066419;28;20028;-68
2022/08/28 01:51:41;;;;;;;12.00;4.15;;;;;;;14.30;75.63;101848.88;5066265;28;20399;-66
2022/08/28 01:54:08;;;;;;;9.23;3.88;;;;;;;14.27;75.67;101854.59;5066987;28;20128;-65
2022/08/28 01:56:34;;;;;;;9.38;4.30;;;;;;;14.28;75.47;101852.72;5061870;28;20522;-64
2022/08/28 01:59:03;;;;;;;10.43;4.30;;;;;;;14.25;75.94;101850.19;5046271;28;20016;-64
2022/08/28 02:01:28;;;;;;;9.55;3.90;;;;;;;14.23;75.50;101849.44;5052102;28;20194;-66
2022/08/28 02:03:54;;;;;;;11.82;3.97;;;;;;;14.21;74.94;101852.25;5060286;28;20127;-64
2022/08/28 02:06:19;;;;;;;10.70;4.10;;;;;;;14.19;75.92;101853.38;5067763;28;20037;-64
2022/08/28 02:08:45;;;;;;;8.70;3.97;;;;;;;14.15;75.87;101852.72;5048005;28;20033;-64
2022/08/28 02:11:11;;;;;;;9.68;3.78;;;;;;;14.12;75.42;101863.00;5058241;28;20340;-65
2022/08/28 02:13:38;;;;;;;9.13;3.75;;;;;;;14.07;75.73;101860.59;5066108;28;20116;-64
2022/08/28 02:16:05;;;;;;;11.50;4.15;;;;;;;13.98;76.98;101859.38;5064843;28;20119;-65
2022/08/28 02:18:31;;;;;;;8.70;4.00;;;;;;;13.93;76.65;101863.41;5065767;28;20397;-64
2022/08/28 02:20:56;;;;;;;12.38;3.80;;;;;;;13.88;76.18;101860.13;5066904;28;20047;-69
2022/08/28 02:23:21;;;;;;;7.75;3.88;;;;;;;13.83;76.13;101867.78;5066765;28;20028;-65
2022/08/28 02:25:47;;;;;;;7.95;4.05;;;;;;;13.80;76.24;101863.41;5064492;28;20068;-64
2022/08/28 02:28:12;;;;;;;6.28;3.85;;;;;;;13.76;76.48;101864.63;5065118;28;20360;-66
2022/08/28 02:30:39;;;;;;;8.63;4.18;;;;;;;13.73;77.17;101862.09;5066512;28;20040;-64
2022/08/28 02:33:04;;;;;;;9.05;3.45;;;;;;;13.71;76.03;101862.19;5064826;28;20529;-64
2022/08/28 02:35:30;;;;;;;8.25;4.35;;;;;;;13.67;76.35;101868.00;5065124;28;20146;-64
2022/08/28 02:37:55;;;;;;;12.25;4.45;;;;;;;13.62;76.03;101864.69;5066191;28;20112;-65
2022/08/28 02:40:22;;;;;;;7.68;3.60;;;;;;;13.57;76.00;101867.75;5065796;28;20119;-64
2022/08/28 02:42:48;;;;;;;10.32;3.63;;;;;;;13.52;77.03;101867.16;5066311;28;20044;-65
2022/08/28 02:45:15;;;;;;;7.20;3.58;;;;;;;13.50;76.62;101869.13;5065014;28;20048;-65
2022/08/28 02:47:43;;;;;;;6.75;3.97;;;;;;;13.46;76.70;101867.59;5064415;28;20029;-65
2022/08/28 02:50:11;;;;;;;9.32;3.40;;;;;;;13.41;76.67;101873.38;5065097;28;20040;-64
2022/08/28 02:52:38;;;;;;;8.45;3.47;;;;;;;13.39;76.53;101869.00;5060916;28;20435;-65
2022/08/28 02:55:05;;;;;;;10.13;4.20;;;;;;;13.36;77.55;101867.34;5065146;28;20036;-65
2022/08/28 02:57:31;;;;;;;8.85;3.20;;;;;;;13.34;76.53;101860.25;5065079;28;20406;-67
2022/08/28 02:59:58;;;;;;;9.57;3.60;;;;;;;13.30;77.09;101856.84;5065854;28;20115;-64
2022/08/28 03:02:24;;;;;;;9.73;3.67;;;;;;;13.27;77.09;101874.31;5063748;28;20091;-66
2022/08/28 03:04:50;;;;;;;9.93;3.80;;;;;;;13.22;77.12;101871.00;5066798;28;20090;-65
2022/08/28 03:07:16;;;;;;;9.18;3.78;;;;;;;13.18;77.31;101868.53;5065929;28;20025;-64
2022/08/28 03:09:42;;;;;;;7.65;3.55;;;;;;;13.18;77.40;101874.00;5065667;28;20047;-64
2022/08/28 03:12:09;;;;;;;10.88;4.13;;;;;;;13.15;77.72;101866.91;5064377;28;20115;-65
2022/08/28 03:14:36;;;;;;;7.47;3.70;;;;;;;13.08;77.77;101871.03;5065289;28;20524;-65
2022/08/28 03:17:02;;;;;;;14.68;3.63;;;;;;;13.05;78.46;101868.47;5060505;28;20021;-65
2022/08/28 03:19:27;;;;;;;10.48;3.72;;;;;;;13.01;77.82;101866.97;5064830;28;20448;-64
2022/08/28 03:21:53;;;;;;;9.25;4.25;;;;;;;12.97;78.17;101865.41;5065507;28;20068;-67
2022/08/28 03:24:19;;;;;;;15.07;3.72;;;;;;;12.94;78.01;101871.06;5059749;28;20040;-65
2022/08/28 03:26:45;;;;;;;9.98;4.20;;;;;;;12.95;78.07;101872.81;5061112;28;20111;-65
2022/08/28 03:29:10;;;;;;;12.25;3.40;;;;;;;12.93;78.55;101877.50;5064877;28;20044;-67
2022/08/28 03:31:37;;;;;;;8.93;3.88;;;;;;;12.93;77.89;101880.25;5063862;28;20032;-64
2022/08/28 03:34:03;;;;;;;13.93;4.47;;;;;;;12.86;79.22;101885.22;5064533;28;20033;-65
2022/08/28 03:36:29;;;;;;;7.78;3.72;;;;;;;12.87;78.16;101886.09;5065565;28;20541;-64
2022/08/28 03:38:56;;;;;;;12.23;4.07;;;;;;;12.83;78.50;101885.44;5064218;28;20095;-65
2022/08/28 03:41:24;;;;;;;9.10;4.10;;;;;;;12.78;78.86;101882.13;5064351;28;20032;-64
2022/08/28 03:43:50;;;;;;;7.72;3.58;;;;;;;12.72;78.86;101887.97;5062670;28;20041;-65
2022/08/28 03:46:18;;;;;;;9.75;4.60;;;;;;;12.70;78.82;101893.53;5064495;28;20044;-64
2022/08/28 03:48:45;;;;;;;8.43;3.47;;;;;;;12.66;78.87;101886.50;5064699;28;20480;-65
2022/08/28 03:51:23;;;;;;;11.10;3.70;;;;;;;12.63;78.99;101897.63;5065524;28;20120;-67
2022/08/28 03:53:49;;;;;;;10.82;4.15;;;;;;;12.59;79.13;101890.63;5064789;28;20523;-65
2022/08/28 03:56:20;;;;;;;10.20;3.33;;;;;;;12.55;78.78;101889.06;5064833;28;20533;-64
2022/08/28 03:58:47;;;;;;;7.00;3.22;;;;;;;12.52;78.57;101900.16;5064327;28;20082;-66
2022/08/28 04:01:12;;;;;;;7.35;3.38;;;;;;;12.51;79.02;101901.16;5064332;28;20236;-65
2022/08/28 04:03:37;;;;;;;6.38;3.72;;;;;;;12.47;78.81;101902.31;5062812;28;20036;-64
2022/08/28 04:06:03;;;;;;;10.25;4.15;;;;;;;12.40;80.19;101896.38;5064725;28;20497;-65
2022/08/28 04:08:28;;;;;;;12.27;4.20;;;;;;;12.33;80.08;101905.03;5063760;28;20411;-66
2022/08/28 04:10:55;;;;;;;6.13;4.13;;;;;;;12.33;79.88;101905.91;5064229;28;20523;-65
2022/08/28 04:13:21;;;;;;;8.10;4.32;;;;;;;12.32;79.54;101897.84;5065235;28;20448;-64
2022/08/28 04:15:58;;;;;;;8.63;4.15;;;;;;;12.31;78.67;101904.25;5063958;28;20017;-65
2022/08/28 04:18:25;;;;;;;8.15;3.88;;;;;;;12.28;78.80;101897.16;5055283;28;20400;-64
2022/08/28 04:21:01;;;;;;;6.75;3.95;;;;;;;12.24;79.37;101891.00;5045880;28;20029;-65
2022/08/28 04:23:28;;;;;;;7.95;4.10;;;;;;;12.21;78.86;101899.38;5059353;28;20190;-64
2022/08/28 04:25:54;;;;;;;6.38;3.53;;;;;;;12.14;78.87;101894.41;5067246;28;20040;-66
2022/08/28 04:28:21;;;;;;;6.28;3.45;;;;;;;12.09;79.78;101897.41;5067496;28;20036;-64
2022/08/28 04:30:50;;;;;;;9.35;4.00;;;;;;;12.08;79.51;101909.31;5065802;28;20041;-65
2022/08/28 04:33:16;;;;;;;12.23;3.95;;;;;;;12.05;79.62;101909.50;5066773;28;20096;-64
2022/08/28 04:35:42;;;;;;;8.38;4.03;;;;;;;12.03;79.16;101905.09;5068823;28;20040;-65
2022/08/28 04:38:07;;;;;;;8.65;3.80;;;;;;;12.00;79.02;101904.31;5054747;28;20031;-65
2022/08/28 04:40:32;;;;;;;8.45;3.58;;;;;;;11.98;79.75;101908.09;5062167;28;20488;-64
2022/08/28 04:42:58;;;;;;;8.95;3.92;;;;;;;11.98;79.19;101914.47;5068036;28;20660;-66
2022/08/28 04:45:23;;;;;;;7.65;3.88;;;;;;;11.95;79.52;101914.63;5067297;28;20526;-66
2022/08/28 04:47:48;;;;;;;8.60;3.83;;;;;;;11.93;79.57;101919.28;5067245;28;20020;-65
2022/08/28 04:50:14;;;;;;;10.43;4.18;;;;;;;11.89;80.15;101912.28;5068765;28;20040;-65
2022/08/28 04:52:41;;;;;;;10.60;4.38;;;;;;;11.88;79.79;101918.69;5067031;28;21274;-64
2022/08/28 04:55:08;;;;;;;9.43;3.80;;;;;;;11.85;79.73;101913.44;5066843;28;20056;-64
2022/08/28 04:57:33;;;;;;;8.35;4.38;;;;;;;11.83;79.65;101918.09;5065414;28;20558;-65
2022/08/28 04:59:58;;;;;;;9.20;3.83;;;;;;;11.81;80.52;101920.00;5066167;28;20032;-65
2022/08/28 05:02:24;;;;;;;6.20;3.03;;;;;;;11.78;80.40;101917.47;5066275;28;20163;-67
2022/08/28 05:04:49;;;;;;;11.45;4.30;;;;;;;11.79;79.81;101921.06;5068934;28;20375;-66
2022/08/28 05:07:15;;;;;;;10.68;4.80;;;;;;;11.78;80.54;101927.50;5068100;28;20024;-66
2022/08/28 05:09:40;;;;;;;14.40;3.90;;;;;;;11.76;81.02;101927.59;5066965;28;20039;-65
2022/08/28 05:12:05;;;;;;;7.65;4.25;;;;;;;11.75;80.67;101936.75;5067303;28;20399;-65
2022/08/28 05:14:31;;;;;;;6.97;3.75;;;;;;;11.74;81.28;101938.56;5067574;28;20029;-64
2022/08/28 05:16:57;;;;;;;7.65;3.88;;;;;;;11.73;80.26;101934.09;5066347;28;20109;-65
2022/08/28 05:19:25;;;;;;;4.45;3.08;;;;;;;11.74;80.39;101944.03;5049352;28;20024;-68
2022/08/28 05:21:51;;;;;;;14.38;4.70;;;;;;;11.75;81.21;101945.81;5074440;28;20510;-64
2022/08/28 05:24:17;;;;;;;12.18;4.53;;;;;;;11.68;81.87;101938.94;5064954;28;20047;-64
2022/08/28 05:26:43;;;;;;;13.88;4.63;;;;;;;11.69;81.19;101942.56;5064748;28;20124;-65
2022/08/28 05:29:10;;;;;;;10.88;3.92;;;;;;;11.72;80.20;101953.28;5056939;28;20442;-64
2022/08/28 05:31:37;;;;;;;6.85;3.78;;;;;;;11.75;80.77;101953.13;5065326;28;20106;-65
2022/08/28 05:34:03;;;;;;;7.65;4.35;;;;;;;11.74;80.33;101957.66;5066643;28;20127;-65
2022/08/28 05:36:33;;;;;;;8.60;4.45;;;;;;;11.72;80.75;101948.72;5066715;28;20501;-65
2022/08/28 05:39:00;;;;;;;8.73;4.50;;;;;;;11.77;80.86;101958.47;5048484;28;20025;-65
2022/08/28 05:41:29;;;;;;;12.75;4.95;;;;;;;11.77;81.20;101961.19;5050820;28;20044;-65
2022/08/28 05:44:00;;;;;;;11.38;5.00;;;;;;;11.76;81.14;101963.03;5060259;28;20028;-65
2022/08/28 05:46:29;;;;;;;7.93;4.00;;;;;;;11.77;81.26;101953.00;5064808;28;20045;-64
2022/08/28 05:48:55;;;;;;;11.10;4.80;;;;;;;11.76;82.28;101957.59;5061836;28;20058;-65
2022/08/28 05:51:23;;;;;;;14.65;4.90;;;;;;;11.76;81.84;101960.31;5059567;28;20539;-64
2022/08/28 05:53:48;;;;;;;15.30;4.70;;;;;;;11.80;81.41;101963.72;5047691;28;20086;-65
2022/08/28 05:56:17;;;;;;;6.00;3.72;;;;;;;11.81;80.99;101960.03;5050128;28;20033;-66
2022/08/28 05:58:43;;;;;;;11.75;4.70;;;;;;;11.82;80.64;101962.69;5057736;28;20064;-65
2022/08/28 06:01:15;;;;;;;7.82;4.28;;;;;;;11.84;81.03;101962.59;5064019;28;20654;-64
2022/08/28 06:03:44;;;;;;;7.78;4.47;;;;;;;11.87;81.52;101963.28;5062346;28;20060;-65
2022/08/28 06:06:10;;;;;;;8.43;4.30;;;;;;;11.88;81.78;101967.78;5078424;28;20036;-65
2022/08/28 06:08:37;;;;;;;8.65;4.45;;;;;;;11.92;82.00;101973.94;5066537;28;20041;-65
2022/08/28 06:11:04;;;;;;;9.43;4.50;;;;;;;11.97;81.94;101975.41;5066605;28;20074;-64
2022/08/28 06:13:30;;;;;;;10.40;4.50;;;;;;;12.02;81.76;101969.66;5073044;28;20020;-64
2022/08/28 06:15:56;;;;;;;13.23;4.90;;;;;;;12.08;82.75;101973.91;5087331;28;20079;-65
2022/08/28 06:18:22;;;;;;;11.18;5.50;;;;;;;12.13;83.15;101974.50;5064859;28;20720;-66
2022/08/28 06:20:48;;;;;;;13.02;5.60;;;;;;;12.20;85.22;101975.88;5064394;28;20090;-67
2022/08/28 06:23:17;;;;;;;11.15;5.35;;;;;;;12.29;85.09;101974.44;5066606;28;20411;-65
2022/08/28 06:25:45;;;;;;;16.70;5.45;;;;;;;12.34;84.24;101978.63;5066599;28;20223;-64
2022/08/28 06:28:14;;;;;;;13.65;5.28;;;;;;;12.41;84.69;101979.13;5065172;28;20467;-65
2022/08/28 06:30:42;;;;;;;12.63;5.45;;;;;;;12.48;86.57;101981.38;5084646;28;20047;-64
2022/08/28 06:33:08;;;;;;;7.90;4.65;;;;;;;12.54;84.95;101976.50;5064046;28;20040;-65
2022/08/28 06:35:40;;;;;;;14.07;5.45;;;;;;;12.59;84.16;101979.81;5069618;28;20093;-65
2022/08/28 06:38:06;;;;;;;13.57;5.45;;;;;;;12.67;86.04;101986.56;5066172;28;20492;-65
2022/08/28 06:40:44;;;;;;;10.13;5.15;;;;;;;12.80;85.19;101985.78;5065722;28;20111;-66
2022/08/28 06:43:11;;;;;;;14.48;5.05;;;;;;;12.88;85.28;101988.91;5066018;28;20044;-65
2022/08/28 06:45:43;;;;;;;10.88;5.03;;;;;;;12.96;85.25;101987.44;5073590;28;20475;-65
2022/08/28 06:48:10;;;;;;;12.18;4.88;;;;;;;13.13;84.92;101991.81;5063203;28;20043;-65
2022/08/28 06:50:40;;;;;;;13.35;4.82;;;;;;;13.24;84.89;101994.78;5066351;28;20413;-65
2022/08/28 06:53:08;;;;;;;11.27;4.55;;;;;;;13.32;84.09;101996.09;5063775;28;20052;-66
2022/08/28 06:55:34;;;;;;;13.23;4.35;;;;;;;13.40;84.04;101993.75;5066200;28;20028;-64
2022/08/28 06:57:59;;;;;;;14.35;5.85;;;;;;;13.50;83.87;101992.16;5064954;28;20543;-65
2022/08/28 07:00:24;;;;;;;12.07;4.40;;;;;;;13.65;83.10;101990.25;5065904;28;20111;-65
2022/08/28 07:02:50;;;;;;;16.00;4.45;;;;;;;13.78;82.96;101994.81;5061808;28;20092;-65
2022/08/28 07:05:15;;;;;;;16.17;4.32;;;;;;;13.84;82.32;101996.22;5065227;28;20032;-66
2022/08/28 07:07:41;;;;;;;13.77;4.18;;;;;;;13.94;82.65;101993.75;5064126;28;20085;-66
2022/08/28 07:10:07;;;;;;;9.45;3.63;;;;;;;14.02;82.01;101997.72;5065764;28;20480;-66
2022/08/28 07:12:32;;;;;;;11.40;4.10;;;;;;;14.11;81.81;101992.59;5064374;28;20443;-65
2022/08/28 07:14:57;;;;;;;11.77;4.10;;;;;;;14.17;81.09;101995.78;5062962;28;20029;-65
2022/08/28 07:17:23;;;;;;;8.88;3.50;;;;;;;14.26;80.74;101995.16;5064398;28;20079;-68
2022/08/28 07:19:48;;;;;;;12.38;4.03;;;;;;;14.35;80.52;102007.31;5065569;28;20089;-65
2022/08/28 07:22:14;;;;;;;14.30;4.38;;;;;;;14.46;79.79;101999.25;5065583;28;20102;-64
2022/08/28 07:24:39;;;;;;;8.90;4.32;;;;;;;14.54;79.08;101995.97;5064536;28;20032;-66
2022/08/28 07:27:04;;;;;;;18.05;3.92;;;;;;;14.63;79.47;101998.06;5063235;28;20032;-65
2022/08/28 07:29:30;;;;;;;10.48;3.97;;;;;;;14.73;78.42;101998.28;5063939;28;20513;-65
2022/08/28 07:31:57;;;;;;;18.60;3.33;;;;;;;14.84;77.80;102009.38;5064615;28;20045;-65
2022/08/28 07:34:23;;;;;;;13.50;3.38;;;;;;;14.94;77.73;102004.97;5064326;28;20060;-69
2022/08/28 07:36:51;;;;;;;12.73;2.92;;;;;;;14.95;78.88;102006.72;5066258;28;20117;-65
2022/08/28 07:39:17;;;;;;;11.68;3.03;;;;;;;15.00;77.24;102011.88;5065276;28;20351;-64
2022/08/28 07:41:43;;;;;;;11.90;2.95;;;;;;;15.11;75.57;102009.25;5064337;28;20036;-64
2022/08/28 07:46:56;;;;;;;8.63;2.85;;;;;;;15.24;76.52;102015.56;5064758;28;20117;-65
2022/08/28 07:49:23;;;;;;;7.95;2.85;;;;;;;15.38;75.93;102014.53;5065456;28;20036;-66
2022/08/28 07:51:48;;;;;;;11.27;2.55;;;;;;;15.51;74.64;102012.63;5063697;28;20047;-65
2022/08/28 07:54:14;;;;;;;10.10;2.75;;;;;;;15.61;74.43;102018.31;5052127;28;20029;-67
2022/08/28 07:56:40;;;;;;;7.13;2.40;;;;;;;15.71;73.37;102021.25;5064328;28;20032;-68
2022/08/28 07:59:07;;;;;;;5.90;2.15;;;;;;;15.78;71.89;102017.09;5058950;28;20036;-66
2022/08/28 08:01:38;;;;;;;10.63;2.35;;;;;;;15.88;72.87;102014.50;5064607;28;20032;-65
2022/08/28 08:04:06;;;;;;;8.15;2.25;;;;;;;16.03;72.95;102027.94;5064472;28;20041;-65
2022/08/28 08:06:32;;;;;;;10.00;2.55;;;;;;;16.21;70.29;102030.25;5062883;28;20118;-65
2022/08/28 08:08:58;;;;;;;10.30;2.65;;;;;;;16.35;70.08;102030.06;5057526;28;20123;-65
2022/08/28 08:11:25;;;;;;;9.65;2.17;;;;;;;16.51;72.29;102016.91;5065321;28;20087;-66
2022/08/28 08:13:52;;;;;;;13.13;2.28;;;;;;;16.76;68.91;102031.47;5064382;28;21513;-64
2022/08/28 08:16:21;;;;;;;5.72;1.88;;;;;;;17.08;67.74;102032.50;5065215;28;20032;-66
2022/08/28 08:18:49;;;;;;;5.68;1.98;;;;;;;17.28;67.88;102028.13;5065977;28;20036;-64
2022/08/28 08:21:18;;;;;;;6.30;2.25;;;;;;;17.43;67.15;102022.34;5068578;28;20044;-64
2022/08/28 08:23:44;;;;;;;4.18;2.00;;;;;;;17.53;66.00;102032.50;5066290;28;20040;-65
2022/08/28 08:26:12;;;;;;;10.93;2.60;;;;;;;17.59;66.81;102037.47;5067302;28;20502;-65
2022/08/28 08:28:39;;;;;;;10.02;2.53;;;;;;;17.79;66.52;102030.31;5062918;28;20024;-65
2022/08/28 08:31:12;;;;;;;8.73;1.70;;;;;;;17.81;64.86;102025.59;5062912;28;20040;-68
2022/08/28 08:33:38;;;;;;;;;;;;;;;17.84;66.98;102025.28;5064145;28;20101;-66
2022/08/28 08:36:05;;;;;;;11.00;1.85;;;;;;;17.99;62.79;102030.50;5067319;28;19965;-67
2022/08/28 08:38:32;;;;;;;6.03;1.92;;;;;;;18.00;62.26;102035.91;5067298;28;20041;-64
2022/08/28 08:41:00;;;;;;;7.57;2.13;;;;;;;17.96;61.48;102039.06;5067068;28;20036;-64
2022/08/28 08:43:29;;;;;;;6.28;2.33;;;;;;;18.02;61.09;102041.28;5067855;28;20056;-65
2022/08/28 08:45:55;;;;;;;5.38;1.70;;;;;;;18.13;61.95;102032.97;5068882;28;20044;-64
2022/08/28 08:48:32;;;;;;;8.02;1.98;;;;;;;18.26;60.83;102044.69;5067173;28;20043;-65
2022/08/28 08:51:03;;;;;;;6.95;1.73;;;;;;;18.70;60.95;102036.34;5068819;28;20047;-65
2022/08/28 08:53:31;;;;;;;9.35;1.67;;;;;;;19.14;60.80;102024.13;5084781;28;20032;-65
2022/08/28 08:55:57;;;;;;;9.25;2.30;;;;;;;19.53;58.97;102027.00;5079416;28;20028;-65
2022/08/28 08:58:26;;;;;;;7.53;1.60;;;;;;;19.85;57.82;102024.94;5068315;28;20546;-68
2022/08/28 09:01:10;;;;;;;8.57;2.13;;;;;;;19.86;57.41;102017.53;5069067;28;20024;-64
2022/08/28 09:04:06;;;;;;;5.68;1.45;;;;;;;20.08;58.50;102020.03;5054864;28;20059;-66
2022/08/28 09:06:40;;;;;;;6.55;1.27;;;;;;;20.41;54.68;102020.63;5062863;28;20032;-65
2022/08/28 09:09:16;;;;;;;9.45;1.83;;;;;;;20.74;54.19;102022.06;5052706;28;20043;-64
2022/08/28 09:11:54;;;;;;;3.63;1.77;;;;;;;21.13;54.25;102028.38;5056190;28;20045;-65
2022/08/28 09:14:47;;;;;;;6.10;1.80;;;;;;;21.71;54.58;102021.69;5045578;28;20024;-65
2022/08/28 09:17:16;;;;;;;7.15;1.77;;;;;;;21.61;50.80;102032.84;5057047;28;20078;-64
2022/08/28 09:19:41;;;;;;;5.82;1.85;;;;;;;21.53;52.58;102021.66;5055374;28;20024;-65
2022/08/28 09:22:07;;;;;;;8.43;1.92;;;;;;;21.34;49.36;102030.06;5054237;28;20535;-65
2022/08/28 09:24:35;;;;;;;5.40;1.70;;;;;;;21.01;49.97;102035.09;5060016;28;20488;-65
2022/08/28 09:27:27;;;;;;;6.90;2.10;;;;;;;21.30;53.28;102037.75;5059981;28;20043;-65
2022/08/28 09:30:07;;;;;;;5.93;1.60;;;;;;;21.02;51.93;102020.22;5060788;28;20165;-68
2022/08/28 09:32:54;;;;;;;6.65;1.90;;;;;;;20.86;50.95;102034.69;5057094;28;20025;-64
2022/08/28 09:35:23;;;;;;;7.43;1.60;;;;;;;20.63;52.48;102034.16;5055590;28;20622;-66
2022/08/28 09:37:49;;;;;;;7.20;1.73;;;;;;;20.57;51.93;102026.47;5061770;28;20119;-68
2022/08/28 09:43:27;;;;;;;9.68;1.77;;;;;;;20.87;53.23;102025.38;5062751;28;20495;-65
2022/08/28 09:46:01;;;;;;;6.90;1.52;;;;;;;21.07;50.97;102028.94;5065190;28;20051;-64
2022/08/28 09:48:35;;;;;;;7.97;1.95;;;;;;;21.19;49.37;102026.88;5064304;28;20043;-65
2022/08/28 09:51:37;;;;;;;5.47;1.55;;;;;;;21.44;50.85;102021.69;5066422;28;20032;-65
2022/08/28 09:54:16;;;;;;;4.05;1.58;;;;;;;21.30;48.48;102021.13;5028806;28;20044;-66
2022/08/28 09:56:43;;;;;;;5.95;1.63;;;;;;;21.06;49.43;102024.44;5062815;28;20498;-65
2022/08/28 09:59:15;;;;;;;5.45;1.70;;;;;;;20.93;50.08;102018.38;5062957;28;20039;-64
2022/08/28 10:01:40;;;;;;;11.30;2.00;;;;;;;20.94;50.73;102025.66;5063675;28;20426;-66
2022/08/28 10:04:15;;;;;;;3.45;1.63;;;;;;;20.82;51.78;102022.19;5027209;28;1104159;-65
2022/08/28 10:06:52;;;;;;;4.90;1.92;;;;;;;20.77;52.78;102029.19;5072251;28;20093;-65
2022/08/28 10:09:37;;;;;;;5.45;1.85;;;;;;;20.74;51.75;102030.34;5064608;28;20607;-64
2022/08/28 10:12:18;;;;;;;7.38;1.88;;;;;;;20.83;52.16;102026.69;5065864;28;20401;-65
2022/08/28 10:15:05;;;;;;;7.85;2.20;;;;;;;21.47;52.45;102030.56;5064186;28;20136;-64
2022/08/28 10:17:43;;;;;;;5.30;1.67;;;;;;;21.67;50.27;102028.56;5063762;28;20107;-65
2022/08/28 10:20:14;;;;;;;4.70;1.80;;;;;;;22.03;48.16;102025.88;5064718;28;20476;-65
2022/08/28 10:22:47;;;;;;;2.80;1.48;;;;;;;22.15;47.75;102017.19;5064947;28;20432;-65
2022/08/28 10:25:22;;;;;;;6.20;1.95;;;;;;;22.53;49.05;102017.88;5064198;28;20483;-68
2022/08/28 10:28:12;;;;;;;5.70;1.77;;;;;;;22.80;47.80;102018.75;5050339;28;20606;-65
2022/08/28 10:30:49;;;;;;;3.75;1.50;;;;;;;22.77;45.93;102014.41;5076959;28;20095;-64
2022/08/28 10:33:28;;;;;;;4.00;1.40;;;;;;;22.86;45.21;102021.75;5065765;28;20461;-65
2022/08/28 10:36:10;;;;;;;3.28;1.30;;;;;;;23.14;44.32;102011.41;5060427;28;20036;-65
2022/08/28 10:38:44;;;;;;;5.72;1.60;;;;;;;23.13;45.70;102018.00;5063238;28;20059;-65
2022/08/28 10:41:24;;;;;;;2.75;1.40;;;;;;;23.56;47.59;102016.09;5053259;28;20456;-67
2022/08/28 10:43:53;;;;;;;5.50;1.80;;;;;;;24.10;45.62;102027.72;5060180;28;20040;-66
2022/08/28 10:46:34;;;;;;;2.50;1.23;;;;;;;24.00;44.29;102010.34;5058132;28;20083;-65
2022/08/28 10:49:27;;;;;;;6.97;2.05;;;;;;;24.32;44.34;102017.00;5064024;28;20044;-65
2022/08/28 10:51:59;;;;;;;6.80;1.92;;;;;;;24.17;43.25;102014.03;5050859;28;20047;-65
2022/08/28 10:54:31;;;;;;;7.82;2.35;;;;;;;23.52;43.42;102017.47;5060766;28;21884;-66
2022/08/28 10:57:24;;;;;;;8.85;1.98;;;;;;;22.94;46.12;102025.66;5064372;28;20080;-65
2022/08/28 10:59:52;;;;;;;4.55;2.05;;;;;;;22.52;46.51;102027.25;5048151;28;20383;-65
2022/08/28 11:02:21;;;;;;;6.32;1.63;;;;;;;22.74;47.05;102017.50;5064563;28;20488;-64
2022/08/28 11:04:47;;;;;;;5.20;1.42;;;;;;;22.73;45.06;102023.22;5065971;28;20097;-65
2022/08/28 11:07:22;;;;;;;6.18;1.85;;;;;;;23.00;44.24;102016.69;5046711;28;20057;-65
2022/08/28 11:09:48;;;;;;;6.93;1.58;;;;;;;23.65;47.45;102015.13;5062080;28;20044;-65
2022/08/28 11:12:17;;;;;;;4.10;1.80;;;;;;;23.81;41.23;102019.84;4165053;28;10000511;-70
2022/08/28 11:14:49;;;;;;;9.07;1.40;;;;;;;24.04;42.80;102025.66;5014871;28;20628;-65
2022/08/28 11:17:21;;;;;;;2.33;1.23;;;;;;;24.18;43.32;102019.41;5012403;28;20146;-64
2022/08/28 11:20:14;;;;;;;4.35;1.73;;;;;;;23.89;42.54;102014.31;5016059;28;20033;-65
2022/08/28 11:22:50;;;;;;;5.80;2.03;;;;;;;23.70;43.78;102020.19;5014953;28;20500;-65
2022/08/28 11:25:21;;;;;;;7.88;1.90;;;;;;;23.46;42.36;102023.72;5019147;28;20041;-65
2022/08/28 11:28:14;;;;;;;8.43;1.92;;;;;;;23.20;44.24;102020.09;5020151;28;20112;-65
2022/08/28 11:30:40;;;;;;;4.97;1.60;;;;;;;23.05;44.18;102019.84;5021163;28;20397;-66
2022/08/28 11:33:26;;;;;;;8.27;1.40;;;;;;;23.00;43.76;102025.00;5022427;28;20021;-65
2022/08/28 11:35:52;;;;;;;3.40;1.30;;;;;;;23.15;46.16;102026.13;5022647;28;20029;-65
2022/08/28 11:38:39;;;;;;;5.63;1.27;;;;;;;23.42;44.30;102012.06;5015023;28;20044;-66
2022/08/28 11:41:21;;;;;;;8.00;1.55;;;;;;;23.11;43.58;102020.03;5016953;28;20469;-65